createdAt,value
2022-11-03T00:03:19.332Z,98919.84
2022-11-03T00:08:21.170Z,98914.72
2022-11-03T00:13:23.008Z,98924.44
2022-11-03T00:18:24.931Z,98912.16
2022-11-03T00:23:28.897Z,98911.78
2022-11-03T00:28:32.599Z,98900.06
2022-11-03T00:33:35.085Z,98895.03
2022-11-03T00:38:37.798Z,98883.97
2022-11-03T00:43:40.383Z,98884.41
2022-11-03T00:48:42.704Z,98877.88
2022-11-03T00:53:51.187Z,98875.69
2022-11-03T00:58:54.323Z,98864.94
2022-11-03T01:04:16.453Z,98857.59
2022-11-03T01:09:19.742Z,98859.34
2022-11-03T01:14:21.721Z,98870.00
2022-11-03T01:19:25.362Z,98869.47
2022-11-03T01:24:27.312Z,98868.09
2022-11-03T01:29:29.212Z,98873.56
2022-11-03T01:34:31.968Z,98868.78
2022-11-03T01:39:34.222Z,98868.94
2022-11-03T01:44:39.825Z,98859.66
2022-11-03T01:49:45.456Z,98855.72
2022-11-03T01:54:52.979Z,98857.63
2022-11-03T01:59:58.604Z,98851.91
2022-11-03T02:05:03.365Z,98844.56
2022-11-03T02:10:06.430Z,98837.06
2022-11-03T02:15:10.677Z,98825.22
2022-11-03T02:20:22.716Z,98822.78
2022-11-03T02:25:47.876Z,98814.88
2022-11-03T02:31:16.220Z,98812.56
2022-11-03T02:36:33.346Z,98810.09
2022-11-03T02:41:38.225Z,98803.16
2022-11-03T02:46:42.887Z,98797.72
2022-11-03T02:51:44.846Z,98789.81
2022-11-03T02:56:54.087Z,98777.69
2022-11-03T03:02:07.018Z,98756.16
2022-11-03T03:07:32.469Z,98742.81
2022-11-03T03:12:38.023Z,98733.84
2022-11-03T03:17:52.610Z,98727.31
2022-11-03T03:23:15.853Z,98722.69
2022-11-03T03:28:24.893Z,98725.97
2022-11-03T03:38:44.133Z,98719.31
2022-11-03T03:43:46.726Z,98715.91
2022-11-03T03:48:49.220Z,98709.25
2022-11-03T03:53:53.270Z,98695.09
2022-11-03T03:58:55.091Z,98684.34
2022-11-03T04:03:57.281Z,98683.94
2022-11-03T04:08:59.084Z,98667.19
2022-11-03T04:14:19.480Z,98669.50
2022-11-03T04:19:39.724Z,98660.41
2022-11-03T04:24:41.702Z,98651.16
2022-11-03T04:29:43.565Z,98651.28
2022-11-03T04:34:47.411Z,98636.06
2022-11-03T04:39:49.302Z,98637.69
2022-11-03T04:44:51.248Z,98637.00
2022-11-03T04:49:53.171Z,98628.56
2022-11-03T04:54:55.008Z,98622.72
2022-11-03T04:59:57.085Z,98612.66
2022-11-03T05:04:59.524Z,98609.53
2022-11-03T05:10:02.849Z,98609.94
2022-11-03T05:15:23.351Z,98610.91
2022-11-03T05:20:49.627Z,98610.09
2022-11-03T05:25:54.338Z,98612.81
2022-11-03T05:30:57.516Z,98606.41
2022-11-03T05:36:08.301Z,98601.09
2022-11-03T05:41:21.048Z,98591.88
2022-11-03T05:46:24.288Z,98589.28
2022-11-03T05:51:32.921Z,98587.78
2022-11-03T05:56:35.280Z,98587.25
2022-11-03T06:01:39.923Z,98583.97
2022-11-03T06:06:41.902Z,98579.91
2022-11-03T06:11:44.347Z,98584.25
2022-11-03T06:16:59.923Z,98583.16
2022-11-03T06:22:28.036Z,98584.53
2022-11-03T06:27:32.224Z,98577.31
2022-11-03T06:32:34.211Z,98578.53
2022-11-03T06:37:36.337Z,98579.59
2022-11-03T06:42:41.453Z,98574.44
2022-11-03T06:47:43.311Z,98571.72
2022-11-03T06:58:08.074Z,98564.34
2022-11-03T07:03:39.049Z,98562.16
2022-11-03T07:08:47.013Z,98557.78
2022-11-03T07:13:52.309Z,98553.69
2022-11-03T07:18:54.195Z,98547.91
2022-11-03T07:24:00.092Z,98544.03
2022-11-03T07:29:02.895Z,98536.19
2022-11-03T07:34:11.169Z,98515.06
2022-11-03T07:39:19.761Z,98507.81
2022-11-03T07:44:21.925Z,98505.75
2022-11-03T07:49:28.712Z,98492.91
2022-11-03T07:54:33.784Z,98483.44
2022-11-03T07:59:39.226Z,98484.53
2022-11-03T08:04:41.000Z,98491.19
2022-11-03T08:09:42.871Z,98476.28
2022-11-03T08:14:44.687Z,98476.88
2022-11-03T08:19:46.685Z,98459.50
2022-11-03T08:24:48.691Z,98457.16
2022-11-03T08:29:50.713Z,98447.16
2022-11-03T08:34:52.990Z,98446.38
2022-11-03T08:39:54.942Z,98442.22
2022-11-03T08:44:56.861Z,98443.38
2022-11-03T08:50:00.192Z,98434.63
2022-11-03T08:55:02.152Z,98420.84
2022-11-03T09:00:06.298Z,98416.81
2022-11-03T09:05:08.882Z,98402.19
2022-11-03T09:10:20.157Z,98403.47
2022-11-03T09:15:24.366Z,98397.78
2022-11-03T09:20:26.813Z,98402.31
2022-11-03T09:25:28.745Z,98393.69
2022-11-03T09:30:30.873Z,98385.66
2022-11-03T09:35:32.763Z,98380.28
2022-11-03T09:40:35.977Z,98361.84
2022-11-03T09:45:39.297Z,98354.66
2022-11-03T09:50:41.511Z,98350.50
2022-11-03T09:55:43.577Z,98346.53
2022-11-03T10:00:46.278Z,98339.34
2022-11-03T10:05:48.542Z,98336.22
2022-11-03T10:10:51.630Z,98315.34
2022-11-03T10:15:53.765Z,98317.88
2022-11-03T10:20:56.696Z,98297.97
2022-11-03T10:26:25.007Z,98294.31
2022-11-03T10:31:41.022Z,98289.03
2022-11-03T10:36:48.048Z,98275.66
2022-11-03T10:41:58.757Z,98261.81
2022-11-03T10:47:02.929Z,98259.22
2022-11-03T10:52:22.682Z,98246.19
2022-11-03T10:57:25.578Z,98236.22
2022-11-03T11:02:32.289Z,98226.56
2022-11-03T11:07:41.987Z,98221.81
2022-11-03T11:13:19.355Z,98203.03
2022-11-03T11:18:30.224Z,98192.06
2022-11-03T11:23:35.342Z,98184.50
2022-11-03T11:28:44.922Z,98165.53
2022-11-03T11:33:46.833Z,98166.78
2022-11-03T11:38:48.690Z,98164.81
2022-11-03T11:43:50.748Z,98156.19
2022-11-03T11:49:16.806Z,98142.50
2022-11-03T11:54:21.167Z,98121.03
2022-11-03T11:59:25.576Z,98120.84
2022-11-03T12:04:31.682Z,98116.44
2022-11-03T12:09:33.994Z,98117.25
2022-11-03T12:14:38.287Z,98103.22
2022-11-03T12:19:48.919Z,98083.81
2022-11-03T12:24:54.916Z,98083.19
2022-11-03T12:30:02.397Z,98080.59
2022-11-03T12:35:08.341Z,98075.38
2022-11-03T12:40:13.754Z,98067.75
2022-11-03T12:45:15.646Z,98064.25
2022-11-03T12:50:17.515Z,98052.16
2022-11-03T12:55:19.588Z,98039.06
2022-11-03T13:00:21.534Z,98039.78
2022-11-03T13:05:23.548Z,98031.69
2022-11-03T13:10:25.408Z,98025.03
2022-11-03T13:15:27.287Z,98022.00
2022-11-03T13:20:29.084Z,98011.75
2022-11-03T13:25:31.947Z,97999.28
2022-11-03T13:30:34.041Z,97978.03
2022-11-03T13:35:35.921Z,97967.16
2022-11-03T13:46:02.676Z,97930.75
2022-11-03T13:51:05.075Z,97931.84
2022-11-03T13:56:08.904Z,97922.72
2022-11-03T14:01:12.453Z,97920.59
2022-11-03T14:06:14.479Z,97912.53
2022-11-03T14:11:34.766Z,97920.06
2022-11-03T14:16:36.683Z,97913.44
2022-11-03T14:21:41.046Z,97894.78
2022-11-03T14:26:43.507Z,97896.31
2022-11-03T14:31:45.826Z,97887.44
2022-11-03T14:36:48.108Z,97895.00
2022-11-03T14:42:05.630Z,97886.94
2022-11-03T14:47:10.690Z,97876.06
2022-11-03T14:52:13.392Z,97873.84
2022-11-03T14:57:15.383Z,97866.41
2022-11-03T15:02:17.514Z,97847.75
2022-11-03T15:07:19.425Z,97841.28
2022-11-03T15:12:21.164Z,97814.06
2022-11-03T15:17:22.944Z,97802.41
2022-11-03T15:27:46.754Z,97772.56
2022-11-03T15:32:48.769Z,97772.56
2022-11-03T15:37:50.817Z,97768.97
2022-11-03T15:42:52.793Z,97768.97
2022-11-03T15:47:58.281Z,97764.75
2022-11-03T15:53:00.465Z,97765.09
2022-11-03T15:58:02.522Z,97743.50
2022-11-03T16:03:04.607Z,97735.88
2022-11-03T16:08:06.848Z,97730.88
2022-11-03T16:13:09.111Z,97724.06
2022-11-03T16:18:12.213Z,97708.81
2022-11-03T16:23:14.084Z,97708.81
2022-11-03T16:28:15.889Z,97708.63
2022-11-03T16:33:17.764Z,97708.03
2022-11-03T16:38:19.669Z,97704.25
2022-11-03T16:43:21.502Z,97692.69
2022-11-03T16:48:23.373Z,97673.69
2022-11-03T16:53:25.428Z,97675.66
2022-11-03T16:58:27.387Z,97672.06
2022-11-03T17:03:29.361Z,97657.28
2022-11-03T17:08:51.848Z,97641.31
2022-11-03T17:13:53.530Z,97622.50
2022-11-03T17:18:55.564Z,97610.50
2022-11-03T17:23:59.886Z,97600.72
2022-11-03T17:29:01.930Z,97588.53
2022-11-03T17:34:03.974Z,97588.34
2022-11-03T17:39:06.229Z,97582.81
2022-11-03T17:44:18.622Z,97577.84
2022-11-03T17:49:20.629Z,97579.09
2022-11-03T17:54:24.358Z,97564.53
2022-11-03T17:59:27.739Z,97559.16
2022-11-03T18:04:29.654Z,97551.97
2022-11-03T18:09:31.504Z,97536.78
2022-11-03T18:14:33.377Z,97533.19
2022-11-03T18:19:35.320Z,97515.59
2022-11-03T18:24:37.242Z,97511.81
2022-11-03T18:29:39.286Z,97501.84
2022-11-03T18:34:42.067Z,97496.28
2022-11-03T18:39:43.943Z,97492.28
2022-11-03T18:44:46.648Z,97471.91
2022-11-03T18:49:49.216Z,97463.72
2022-11-03T18:54:52.416Z,97474.53
2022-11-03T18:59:54.535Z,97455.16
2022-11-03T19:04:56.553Z,97449.75
2022-11-03T19:09:58.799Z,97441.16
2022-11-03T19:15:00.822Z,97435.34
2022-11-03T19:20:14.095Z,97430.13
2022-11-03T19:25:16.603Z,97426.91
2022-11-03T19:30:20.208Z,97428.53
2022-11-03T19:35:35.453Z,97423.94
2022-11-03T19:40:59.984Z,97411.69
2022-11-03T19:46:03.137Z,97410.88
2022-11-03T19:51:06.421Z,97398.44
2022-11-03T19:56:09.959Z,97392.44
2022-11-03T20:01:11.915Z,97381.44
2022-11-03T20:06:18.220Z,97378.03
2022-11-03T20:11:22.102Z,97361.81
2022-11-03T20:16:24.689Z,97359.59
2022-11-03T20:21:32.994Z,97356.19
2022-11-03T20:26:36.676Z,97349.19
2022-11-03T20:31:38.819Z,97338.81
2022-11-03T20:36:42.003Z,97334.97
2022-11-03T20:41:54.496Z,97334.38
2022-11-03T20:46:56.445Z,97328.56
2022-11-03T20:51:58.618Z,97313.16
2022-11-03T20:57:00.463Z,97315.16
2022-11-03T21:02:02.587Z,97314.16
2022-11-03T21:07:05.579Z,97316.75
2022-11-03T21:12:12.081Z,97317.56
2022-11-03T21:17:32.902Z,97318.56
2022-11-03T21:22:54.059Z,97306.75
2022-11-03T21:27:59.586Z,97303.94
2022-11-03T21:33:01.459Z,97308.31
2022-11-03T21:38:03.503Z,97308.50
2022-11-03T21:43:23.937Z,97300.53
2022-11-03T21:48:44.267Z,97301.72
2022-11-03T21:53:47.061Z,97285.31
2022-11-03T21:58:48.827Z,97282.53
2022-11-03T22:03:50.562Z,97277.13
2022-11-03T22:08:52.900Z,97267.53
2022-11-03T22:14:00.017Z,97269.34
2022-11-03T22:19:20.382Z,97255.53
2022-11-03T22:24:40.742Z,97252.13
2022-11-03T22:30:01.066Z,97240.13
2022-11-03T22:35:22.816Z,97230.94
2022-11-03T22:40:43.097Z,97231.13
2022-11-03T22:45:51.256Z,97232.13
2022-11-03T22:51:06.609Z,97220.72
2022-11-03T22:56:09.086Z,97213.53
2022-11-03T23:01:19.079Z,97205.16
2022-11-03T23:06:26.489Z,97194.75
2022-11-03T23:11:32.763Z,97193.16
2022-11-03T23:16:40.655Z,97184.34
2022-11-03T23:21:44.192Z,97176.38
2022-11-03T23:26:47.323Z,97168.34
2022-11-03T23:31:49.142Z,97176.75
2022-11-03T23:36:51.388Z,97142.94
2022-11-03T23:41:53.131Z,97133.53
2022-11-03T23:47:13.429Z,97127.34
2022-11-03T23:52:15.143Z,97114.38
2022-11-03T23:57:35.479Z,97113.72
